aviador You're here:

KGLD Decoded Metar

GOODLAND in KS, USA
Report Time2017-07-24 15:53:00
UTC Time2017-07-24 16:38:16
Flight Rules vfr VFR
Wind180° at 12 kt
W.Decomp.*RWY 17: 12.0 kt HW 0.2 kt RCW
RWY 12: 7.6 kt HW 9.3 kt RCW
RWY 23: 6.2 kt HW 10.3 kt LCW
W.Rank180° ranks 1
Current wind is below 180° avg. (12.2)
Visibility9999 m
Phenomena:N/A
Clouds:N/A
Expected CloudBase > 4,400 ft AGL from Temp-Dew spread
CeilingNone
Temp29°C (ISA +21)
Dew Point18°C (51% RH)
Heat Index29.8°C
AAT27.4°C
QNH1018 hPa
Density Alt6,191 ft
Elevation3,652 ft
Report Wrong Elevation
Raw Report
KGLD 241553Z AUTO 18012KT 10SM CLR 29/18 A3006 RMK AO2 SLP131
T02890183=

Extra information for KGLD:More info

Metar Taf Metar & Taf Last 4 Metars F.Rules Stats Wind Profile Meteogram Temp Stats Airport Information Weather charts Add Link Nearby VenuesMetar ALERT Operation Metar Decoded Social comments

AIRNAV info for KGLD